This is the latest recevied weather packets stored in our database for station/object K7KRJ-10. If no packets are shown the sender has not sent any weather packets the latest 10 day(s).
| Time | Temp. | Humidity | Pressure | Rain* | Wind** | Luminosity | Snow |
|---|---|---|---|---|---|---|---|
| 1777846492 | 34.44° C | 13% | 1006 hPa | 0 mm | - | 784 W/m² | - |
| 1777845588 | 33.89° C | 14% | 1006.1 hPa | 0 mm | - | 839 W/m² | - |
| 1777844686 | 33.89° C | 14% | 1006.6 hPa | 0 mm | - | 864 W/m² | - |
| 1777843783 | 33.89° C | 14% | 1006.7 hPa | 0 mm | - | 904 W/m² | - |
| 1777842881 | 33.89° C | 16% | 1006.9 hPa | 0 mm | - | 942 W/m² | - |
| 1777841979 | 33.89° C | 16% | 1007.1 hPa | 0 mm | - | 1019 W/m² | - |
| 1777841076 | 33.89° C | 17% | 1007.5 hPa | 0 mm | - | 1033 W/m² | - |
| 1777840173 | 33.89° C | 18% | 1007.9 hPa | 0 mm | - | 1050 W/m² | - |
| 1777839272 | 32.78° C | 19% | 1007.8 hPa | 0 mm | - | 1036 W/m² | - |
| 1777838368 | 32.78° C | 20% | 1008.2 hPa | 0 mm | - | 1049 W/m² | - |
| 1777837465 | 33.33° C | 19% | 1008.5 hPa | 0 mm | - | 1061 W/m² | - |
| 1777836563 | 32.22° C | 19% | 1008.7 hPa | 0 mm | - | 1061 W/m² | - |
| 1777835659 | 32.78° C | 19% | 1009 hPa | 0 mm | - | 1062 W/m² | - |
| 1777834755 | 32.78° C | 18% | 1009.2 hPa | 0 mm | - | 1054 W/m² | - |
| 1777833854 | 32.22° C | 18% | 1009.1 hPa | 0 mm | - | 1046 W/m² | - |
| 1777832949 | 31.67° C | 20% | 1009.5 hPa | 0 mm | - | 1032 W/m² | - |
| 1777832048 | 31.11° C | 21% | 1009.7 hPa | 0 mm | - | 1012 W/m² | - |
| 1777831144 | 31.11° C | 21% | 1009.7 hPa | 0 mm | - | 1003 W/m² | - |
| 1777830242 | 30.56° C | 22% | 1010.1 hPa | 0 mm | - | 932 W/m² | - |
| 1777829341 | 30° C | 22% | 1009.9 hPa | 0 mm | - | 513 W/m² | - |
| 1777828438 | 28.89° C | 25% | 1010.3 hPa | 0 mm | - | 538 W/m² | - |
| 1777827534 | 28.89° C | 25% | 1010.2 hPa | 0 mm | - | 474 W/m² | - |
| 1777826631 | 28.89° C | 26% | 1010.4 hPa | 0 mm | - | 586 W/m² | - |
| 1777825727 | 28.33° C | 26% | 1010.2 hPa | 0 mm | - | 396 W/m² | - |
| 1777824824 | 28.33° C | 26% | 1010.4 hPa | 0 mm | - | 403 W/m² | - |
* Rain latest hour (hover to see other rain measurements)
** Current wind speed in m/s (hover to see current wind gust speed)